createdAt,value
2022-09-20T00:00:12.762Z,13.20
2022-09-20T00:05:16.384Z,12.66
2022-09-20T00:10:20.214Z,12.96
2022-09-20T00:15:24.164Z,12.87
2022-09-20T00:20:28.082Z,12.09
2022-09-20T00:25:31.617Z,11.53
2022-09-20T00:30:35.997Z,12.22
2022-09-20T00:35:39.652Z,12.31
2022-09-20T00:40:45.488Z,12.11
2022-09-20T00:45:50.743Z,12.35
2022-09-20T00:51:02.909Z,12.18
2022-09-20T00:56:13.123Z,12.18
2022-09-20T01:01:18.455Z,11.43
2022-09-20T01:06:22.256Z,11.40
2022-09-20T01:11:27.210Z,11.26
2022-09-20T01:16:33.369Z,12.36
2022-09-20T01:21:37.485Z,12.43
2022-09-20T01:26:59.220Z,11.74
2022-09-20T01:32:09.516Z,12.13
2022-09-20T01:37:28.360Z,12.07
2022-09-20T01:42:38.364Z,11.85
2022-09-20T01:48:14.247Z,11.91
2022-09-20T01:53:49.944Z,11.73
2022-09-20T01:59:22.526Z,11.93
2022-09-20T02:04:51.944Z,11.86
2022-09-20T02:09:55.360Z,11.85
2022-09-20T02:15:11.096Z,11.31
2022-09-20T02:20:36.057Z,11.43
2022-09-20T02:26:16.155Z,11.26
2022-09-20T02:31:35.754Z,11.16
2022-09-20T02:36:48.327Z,10.17
2022-09-20T02:42:16.896Z,10.16
2022-09-20T02:47:37.494Z,9.51
2022-09-20T02:52:55.933Z,10.59
2022-09-20T02:58:32.480Z,10.52
2022-09-20T03:03:50.299Z,10.92
2022-09-20T03:09:09.046Z,11.46
2022-09-20T03:14:28.459Z,11.77
2022-09-20T03:19:57.705Z,11.78
2022-09-20T03:25:19.265Z,11.52
2022-09-20T03:30:25.384Z,11.75
2022-09-20T03:35:47.076Z,11.84
2022-09-20T03:41:09.524Z,11.30
2022-09-20T03:46:28.317Z,10.07
2022-09-20T03:52:02.830Z,9.66
2022-09-20T03:57:06.358Z,9.46
2022-09-20T04:02:37.891Z,9.24
2022-09-20T04:07:49.573Z,9.16
2022-09-20T04:13:30.459Z,8.52
2022-09-20T04:19:02.577Z,8.62
2022-09-20T04:24:17.269Z,8.59
2022-09-20T04:29:32.770Z,7.98
2022-09-20T04:35:13.302Z,8.27
2022-09-20T04:40:48.768Z,8.01
2022-09-20T04:46:44.933Z,7.96
2022-09-20T04:51:52.081Z,8.16
2022-09-20T04:57:23.411Z,8.28
2022-09-20T05:03:11.971Z,7.52
2022-09-20T05:08:33.839Z,7.89
2022-09-20T05:14:08.623Z,7.96
2022-09-20T05:19:27.065Z,8.05
2022-09-20T05:24:55.680Z,7.93
2022-09-20T05:30:13.780Z,7.79
2022-09-20T05:35:31.060Z,8.01
2022-09-20T05:41:01.130Z,7.72
2022-09-20T05:46:15.276Z,8.32
2022-09-20T05:51:49.489Z,8.46
2022-09-20T05:56:57.741Z,8.04
2022-09-20T06:02:29.025Z,8.63
2022-09-20T06:07:42.492Z,8.55
2022-09-20T06:12:59.697Z,9.25
2022-09-20T06:18:09.045Z,9.52
2022-09-20T06:23:13.317Z,8.98
2022-09-20T06:28:23.508Z,10.17
2022-09-20T06:33:31.277Z,10.14
2022-09-20T06:39:01.114Z,10.81
2022-09-20T06:44:06.281Z,11.02
2022-09-20T06:49:12.589Z,11.05
2022-09-20T06:54:19.342Z,11.11
2022-09-20T06:59:22.995Z,11.49
2022-09-20T07:04:27.489Z,11.59
2022-09-20T07:09:32.284Z,12.53
2022-09-20T07:14:36.465Z,12.59
2022-09-20T07:19:40.214Z,12.00
2022-09-20T07:24:45.800Z,13.14
2022-09-20T07:29:49.246Z,12.97
2022-09-20T07:34:52.949Z,13.42
2022-09-20T07:39:56.624Z,13.24
2022-09-20T07:45:02.947Z,14.13
2022-09-20T07:50:07.894Z,14.19
2022-09-20T07:55:12.086Z,14.95
2022-09-20T08:00:16.075Z,15.15
2022-09-20T08:05:19.486Z,15.63
2022-09-20T08:10:22.946Z,15.98
2022-09-20T08:15:26.734Z,15.75
2022-09-20T08:20:30.179Z,16.29
2022-09-20T08:25:34.245Z,17.23
2022-09-20T08:30:37.662Z,16.59
2022-09-20T08:35:41.160Z,18.17
2022-09-20T08:40:45.673Z,17.05
2022-09-20T08:45:49.320Z,17.66
2022-09-20T08:50:52.915Z,18.42
2022-09-20T08:56:00.759Z,19.70
2022-09-20T09:01:04.530Z,19.81
2022-09-20T09:06:18.365Z,20.51
2022-09-20T09:11:24.263Z,20.47
2022-09-20T09:35:32.509Z,21.64
2022-09-20T11:15:05.464Z,20.97
2022-09-20T11:20:18.728Z,21.69
2022-09-20T11:25:26.073Z,22.17
2022-09-20T11:30:35.085Z,20.72
2022-09-20T11:35:45.700Z,21.38
2022-09-20T11:40:58.568Z,21.76
2022-09-20T11:46:11.587Z,21.79
2022-09-20T11:51:43.596Z,20.61
2022-09-20T11:56:53.089Z,20.74
2022-09-20T12:02:01.133Z,19.57
2022-09-20T12:07:25.308Z,20.53
2022-09-20T12:12:45.268Z,20.43
2022-09-20T12:17:48.641Z,20.46
2022-09-20T12:22:52.147Z,20.55
2022-09-20T12:27:55.478Z,20.75
2022-09-20T12:33:01.939Z,20.66
2022-09-20T12:38:28.510Z,20.09
2022-09-20T12:43:33.983Z,19.93
2022-09-20T12:48:39.115Z,18.91
2022-09-20T12:53:42.629Z,19.76
2022-09-20T12:58:46.068Z,20.18
2022-09-20T13:03:51.080Z,20.13
2022-09-20T13:09:05.747Z,20.38
2022-09-20T13:14:18.798Z,20.11
2022-09-20T13:19:35.245Z,19.52
2022-09-20T13:24:42.586Z,19.89
2022-09-20T13:29:46.238Z,19.26
2022-09-20T13:35:09.294Z,20.07
2022-09-20T13:40:20.396Z,20.03
2022-09-20T13:45:24.135Z,19.92
2022-09-20T13:50:27.616Z,19.84
2022-09-20T13:55:34.006Z,19.81
2022-09-20T14:00:39.133Z,19.56
2022-09-20T14:05:47.979Z,19.86
2022-09-20T14:11:06.220Z,18.77
2022-09-20T14:16:10.846Z,19.77
2022-09-20T14:21:18.789Z,18.36
2022-09-20T14:26:29.719Z,19.17
2022-09-20T14:31:35.837Z,19.20
2022-09-20T14:36:39.355Z,18.56
2022-09-20T14:41:44.306Z,19.55
2022-09-20T14:46:47.748Z,18.91
2022-09-20T14:51:55.103Z,19.62
2022-09-20T14:56:59.538Z,19.56
2022-09-20T15:02:03.945Z,19.41
2022-09-20T15:07:14.018Z,19.28
2022-09-20T15:12:20.469Z,19.14
2022-09-20T15:17:24.371Z,19.76
2022-09-20T15:22:28.337Z,19.62
2022-09-20T15:27:32.013Z,19.45
2022-09-20T15:32:35.465Z,19.47
2022-09-20T15:37:38.983Z,19.05
2022-09-20T15:42:43.198Z,20.49
2022-09-20T15:47:47.761Z,20.05
2022-09-20T15:52:55.767Z,19.90
2022-09-20T15:58:01.551Z,19.92
2022-09-20T16:03:05.543Z,19.91
2022-09-20T16:08:09.196Z,19.00
2022-09-20T16:13:17.073Z,19.19
2022-09-20T16:18:39.138Z,18.41
2022-09-20T16:23:47.638Z,18.39
2022-09-20T16:28:52.065Z,18.26
2022-09-20T16:33:55.640Z,18.73
2022-09-20T16:38:59.667Z,18.41
2022-09-20T16:44:03.321Z,17.77
2022-09-20T16:49:10.269Z,16.27
2022-09-20T16:54:15.908Z,15.47
2022-09-20T16:59:23.739Z,15.08
2022-09-20T17:04:27.310Z,14.13
2022-09-20T17:09:31.814Z,13.94
2022-09-20T17:14:35.284Z,13.09
2022-09-20T17:19:40.675Z,13.86
2022-09-20T17:24:50.862Z,12.44
2022-09-20T17:29:54.778Z,11.96
2022-09-20T17:34:58.232Z,10.96
2022-09-20T17:40:02.920Z,10.43
2022-09-20T17:45:07.242Z,11.39
2022-09-20T17:50:15.534Z,9.83
2022-09-20T17:55:21.536Z,11.22
2022-09-20T18:00:25.966Z,10.31
2022-09-20T18:05:39.472Z,10.31
2022-09-20T18:10:43.570Z,9.92
2022-09-20T18:15:47.314Z,9.95
2022-09-20T18:20:51.206Z,10.79
2022-09-20T18:26:12.992Z,9.21
2022-09-20T18:31:16.714Z,9.30
2022-09-20T18:36:24.682Z,10.10
2022-09-20T18:41:39.248Z,9.75
2022-09-20T18:46:43.124Z,9.88
2022-09-20T18:51:48.063Z,9.76
2022-09-20T18:56:52.015Z,10.50
2022-09-20T19:02:35.694Z,9.78
2022-09-20T19:08:08.611Z,13.04
2022-09-20T19:13:21.042Z,14.11
2022-09-20T19:18:59.684Z,14.19
2022-09-20T19:24:06.191Z,14.07
2022-09-20T19:29:26.153Z,13.68
2022-09-20T19:34:32.896Z,13.39
2022-09-20T19:40:06.244Z,13.86
2022-09-20T19:45:32.091Z,14.05
2022-09-20T19:50:53.918Z,13.81
2022-09-20T19:56:22.448Z,13.70
2022-09-20T20:01:27.354Z,13.49
2022-09-20T20:06:40.106Z,13.54
2022-09-20T20:11:55.103Z,13.48
2022-09-20T20:17:19.759Z,13.37
2022-09-20T20:22:48.621Z,13.21
2022-09-20T20:27:52.075Z,13.02
2022-09-20T20:32:58.984Z,12.99
2022-09-20T20:38:06.921Z,13.16
2022-09-20T20:43:10.755Z,12.78
2022-09-20T20:48:14.412Z,11.69
2022-09-20T20:53:17.830Z,12.89
2022-09-20T20:58:35.703Z,12.56
2022-09-20T21:03:41.978Z,12.80
2022-09-20T21:08:49.477Z,12.05
2022-09-20T21:13:55.518Z,12.78
2022-09-20T21:18:59.562Z,12.79
2022-09-20T21:24:05.519Z,12.08
2022-09-20T21:29:11.802Z,12.47
2022-09-20T21:34:16.790Z,12.54
2022-09-20T21:39:20.316Z,12.88
2022-09-20T21:44:23.934Z,12.48
2022-09-20T21:49:27.366Z,12.61
2022-09-20T21:54:31.623Z,12.52
2022-09-20T21:59:35.052Z,12.19
2022-09-20T22:04:38.839Z,13.10
2022-09-20T22:09:42.261Z,13.07
2022-09-20T22:14:45.805Z,12.90
2022-09-20T22:19:49.809Z,12.76
2022-09-20T22:24:53.482Z,12.24
2022-09-20T22:30:01.485Z,12.47
2022-09-20T22:35:08.602Z,10.98
2022-09-20T22:40:12.478Z,11.95
2022-09-20T22:45:16.346Z,11.98
2022-09-20T22:50:19.972Z,12.18
2022-09-20T22:55:25.107Z,12.16
2022-09-20T23:00:28.605Z,11.62
2022-09-20T23:05:32.113Z,11.57
2022-09-20T23:10:41.562Z,11.31
2022-09-20T23:15:45.166Z,12.23
2022-09-20T23:20:48.910Z,12.65
2022-09-20T23:25:52.633Z,12.48
2022-09-20T23:31:04.572Z,12.59
2022-09-20T23:36:10.092Z,12.23
2022-09-20T23:41:16.033Z,12.62
2022-09-20T23:46:21.494Z,12.61
2022-09-20T23:51:27.185Z,12.64
2022-09-20T23:56:31.219Z,11.57
